sensor_id;sensor_type;location;lat;lon;timestamp;P1;durP1;ratioP1;P2;durP2;ratioP2
60665;SDS011;59128;44.642;21.188;2024-03-22T00:01:46;84.32;;;55.08;;
60665;SDS011;59128;44.642;21.188;2024-03-22T00:04:13;71.88;;;51.97;;
60665;SDS011;59128;44.642;21.188;2024-03-22T00:06:40;34.10;;;24.60;;
60665;SDS011;59128;44.642;21.188;2024-03-22T00:09:06;33.33;;;24.27;;
60665;SDS011;59128;44.642;21.188;2024-03-22T00:11:32;37.22;;;26.52;;
60665;SDS011;59128;44.642;21.188;2024-03-22T00:13:59;31.00;;;24.77;;
60665;SDS011;59128;44.642;21.188;2024-03-22T00:16:25;58.63;;;39.53;;
60665;SDS011;59128;44.642;21.188;2024-03-22T00:18:51;53.97;;;38.90;;
60665;SDS011;59128;44.642;21.188;2024-03-22T00:21:17;51.75;;;37.78;;
60665;SDS011;59128;44.642;21.188;2024-03-22T00:23:43;49.08;;;36.60;;
60665;SDS011;59128;44.642;21.188;2024-03-22T00:26:09;48.67;;;35.97;;
60665;SDS011;59128;44.642;21.188;2024-03-22T00:28:35;49.42;;;36.13;;
60665;SDS011;59128;44.642;21.188;2024-03-22T00:31:01;42.40;;;31.35;;
60665;SDS011;59128;44.642;21.188;2024-03-22T00:33:27;46.03;;;33.97;;
60665;SDS011;59128;44.642;21.188;2024-03-22T00:35:53;46.10;;;34.25;;
60665;SDS011;59128;44.642;21.188;2024-03-22T00:38:19;44.70;;;34.40;;
60665;SDS011;59128;44.642;21.188;2024-03-22T00:40:45;50.40;;;37.97;;
60665;SDS011;59128;44.642;21.188;2024-03-22T00:43:11;55.50;;;40.13;;
60665;SDS011;59128;44.642;21.188;2024-03-22T00:45:38;103.57;;;66.07;;
60665;SDS011;59128;44.642;21.188;2024-03-22T00:48:04;102.13;;;65.95;;
60665;SDS011;59128;44.642;21.188;2024-03-22T00:50:30;103.60;;;67.40;;
60665;SDS011;59128;44.642;21.188;2024-03-22T00:52:56;90.68;;;60.13;;
60665;SDS011;59128;44.642;21.188;2024-03-22T00:55:22;86.90;;;58.30;;
60665;SDS011;59128;44.642;21.188;2024-03-22T00:57:48;65.07;;;45.22;;
60665;SDS011;59128;44.642;21.188;2024-03-22T01:00:15;60.67;;;41.25;;
60665;SDS011;59128;44.642;21.188;2024-03-22T01:02:41;47.22;;;34.45;;
60665;SDS011;59128;44.642;21.188;2024-03-22T01:05:07;47.08;;;33.67;;
60665;SDS011;59128;44.642;21.188;2024-03-22T01:07:35;42.55;;;30.95;;
60665;SDS011;59128;44.642;21.188;2024-03-22T01:10:01;41.35;;;29.52;;
60665;SDS011;59128;44.642;21.188;2024-03-22T01:12:27;44.22;;;30.65;;
60665;SDS011;59128;44.642;21.188;2024-03-22T01:14:53;49.47;;;34.08;;
60665;SDS011;59128;44.642;21.188;2024-03-22T01:17:20;129.80;;;83.38;;
60665;SDS011;59128;44.642;21.188;2024-03-22T01:19:46;251.20;;;145.35;;
60665;SDS011;59128;44.642;21.188;2024-03-22T01:22:12;105.72;;;69.80;;
60665;SDS011;59128;44.642;21.188;2024-03-22T01:24:38;132.48;;;88.18;;
60665;SDS011;59128;44.642;21.188;2024-03-22T01:27:04;174.43;;;111.80;;
60665;SDS011;59128;44.642;21.188;2024-03-22T01:29:30;116.47;;;79.18;;
60665;SDS011;59128;44.642;21.188;2024-03-22T01:31:57;116.32;;;78.13;;
60665;SDS011;59128;44.642;21.188;2024-03-22T01:34:24;127.60;;;86.82;;
60665;SDS011;59128;44.642;21.188;2024-03-22T01:36:51;111.68;;;77.13;;
60665;SDS011;59128;44.642;21.188;2024-03-22T01:39:18;94.70;;;66.80;;
60665;SDS011;59128;44.642;21.188;2024-03-22T01:41:46;70.30;;;46.88;;
60665;SDS011;59128;44.642;21.188;2024-03-22T01:44:12;57.70;;;38.30;;
60665;SDS011;59128;44.642;21.188;2024-03-22T01:46:39;57.03;;;37.50;;
60665;SDS011;59128;44.642;21.188;2024-03-22T01:49:05;48.58;;;33.45;;
60665;SDS011;59128;44.642;21.188;2024-03-22T01:51:32;80.00;;;47.65;;
60665;SDS011;59128;44.642;21.188;2024-03-22T01:53:58;80.72;;;47.35;;
60665;SDS011;59128;44.642;21.188;2024-03-22T01:56:27;53.57;;;37.03;;
60665;SDS011;59128;44.642;21.188;2024-03-22T01:58:53;53.78;;;35.78;;
60665;SDS011;59128;44.642;21.188;2024-03-22T02:01:22;58.00;;;40.28;;
60665;SDS011;59128;44.642;21.188;2024-03-22T02:03:49;57.75;;;40.10;;
60665;SDS011;59128;44.642;21.188;2024-03-22T02:06:15;51.77;;;34.23;;
60665;SDS011;59128;44.642;21.188;2024-03-22T02:08:41;44.55;;;30.17;;
60665;SDS011;59128;44.642;21.188;2024-03-22T02:11:09;54.47;;;37.88;;
60665;SDS011;59128;44.642;21.188;2024-03-22T02:13:35;47.22;;;32.33;;
60665;SDS011;59128;44.642;21.188;2024-03-22T02:16:04;57.00;;;37.07;;
60665;SDS011;59128;44.642;21.188;2024-03-22T02:18:30;42.65;;;29.70;;
60665;SDS011;59128;44.642;21.188;2024-03-22T02:20:57;35.50;;;25.17;;
60665;SDS011;59128;44.642;21.188;2024-03-22T02:23:35;39.20;;;26.63;;
60665;SDS011;59128;44.642;21.188;2024-03-22T02:26:02;43.22;;;29.63;;
60665;SDS011;59128;44.642;21.188;2024-03-22T02:28:28;31.67;;;22.50;;
60665;SDS011;59128;44.642;21.188;2024-03-22T02:30:55;26.60;;;19.73;;
60665;SDS011;59128;44.642;21.188;2024-03-22T02:33:21;24.38;;;18.60;;
60665;SDS011;59128;44.642;21.188;2024-03-22T02:35:47;24.47;;;18.53;;
60665;SDS011;59128;44.642;21.188;2024-03-22T02:38:13;25.50;;;19.30;;
60665;SDS011;59128;44.642;21.188;2024-03-22T02:40:39;25.58;;;19.02;;
60665;SDS011;59128;44.642;21.188;2024-03-22T02:43:06;39.38;;;26.65;;
60665;SDS011;59128;44.642;21.188;2024-03-22T02:45:32;44.10;;;30.90;;
60665;SDS011;59128;44.642;21.188;2024-03-22T02:47:58;34.67;;;25.40;;
60665;SDS011;59128;44.642;21.188;2024-03-22T02:50:24;30.25;;;21.88;;
60665;SDS011;59128;44.642;21.188;2024-03-22T02:52:50;34.38;;;24.02;;
60665;SDS011;59128;44.642;21.188;2024-03-22T02:55:16;36.33;;;26.70;;
60665;SDS011;59128;44.642;21.188;2024-03-22T02:57:42;35.05;;;26.77;;
60665;SDS011;59128;44.642;21.188;2024-03-22T03:00:08;27.42;;;21.80;;
60665;SDS011;59128;44.642;21.188;2024-03-22T03:02:35;27.65;;;20.52;;
60665;SDS011;59128;44.642;21.188;2024-03-22T03:05:01;26.52;;;19.42;;
60665;SDS011;59128;44.642;21.188;2024-03-22T03:07:28;25.63;;;19.70;;
60665;SDS011;59128;44.642;21.188;2024-03-22T03:09:54;24.40;;;18.95;;
60665;SDS011;59128;44.642;21.188;2024-03-22T03:12:20;23.75;;;17.88;;
60665;SDS011;59128;44.642;21.188;2024-03-22T03:14:46;22.37;;;17.50;;
60665;SDS011;59128;44.642;21.188;2024-03-22T03:17:12;23.77;;;17.52;;
60665;SDS011;59128;44.642;21.188;2024-03-22T03:19:38;25.40;;;18.08;;
60665;SDS011;59128;44.642;21.188;2024-03-22T03:22:04;22.85;;;16.98;;
60665;SDS011;59128;44.642;21.188;2024-03-22T03:24:30;20.73;;;16.20;;
60665;SDS011;59128;44.642;21.188;2024-03-22T03:26:56;25.10;;;18.40;;
60665;SDS011;59128;44.642;21.188;2024-03-22T03:29:22;25.25;;;18.65;;
60665;SDS011;59128;44.642;21.188;2024-03-22T03:31:48;29.23;;;20.15;;
60665;SDS011;59128;44.642;21.188;2024-03-22T03:34:15;24.88;;;18.15;;
60665;SDS011;59128;44.642;21.188;2024-03-22T03:36:41;24.10;;;17.70;;
60665;SDS011;59128;44.642;21.188;2024-03-22T03:39:07;21.08;;;15.88;;
60665;SDS011;59128;44.642;21.188;2024-03-22T03:41:33;20.55;;;15.57;;
60665;SDS011;59128;44.642;21.188;2024-03-22T03:43:59;20.15;;;15.50;;
60665;SDS011;59128;44.642;21.188;2024-03-22T03:46:25;20.88;;;16.23;;
60665;SDS011;59128;44.642;21.188;2024-03-22T03:48:51;20.48;;;16.33;;
60665;SDS011;59128;44.642;21.188;2024-03-22T03:51:17;19.27;;;14.73;;
60665;SDS011;59128;44.642;21.188;2024-03-22T03:56:19;17.27;;;13.52;;
60665;SDS011;59128;44.642;21.188;2024-03-22T03:58:45;18.20;;;13.05;;
60665;SDS011;59128;44.642;21.188;2024-03-22T04:01:12;20.33;;;14.88;;
60665;SDS011;59128;44.642;21.188;2024-03-22T04:03:38;15.98;;;12.45;;
60665;SDS011;59128;44.642;21.188;2024-03-22T04:06:04;17.67;;;13.43;;
60665;SDS011;59128;44.642;21.188;2024-03-22T04:08:30;19.25;;;14.88;;
60665;SDS011;59128;44.642;21.188;2024-03-22T04:10:57;20.90;;;16.33;;
60665;SDS011;59128;44.642;21.188;2024-03-22T04:13:24;19.85;;;15.23;;
60665;SDS011;59128;44.642;21.188;2024-03-22T04:15:50;20.85;;;15.75;;
60665;SDS011;59128;44.642;21.188;2024-03-22T04:18:16;18.95;;;14.25;;
60665;SDS011;59128;44.642;21.188;2024-03-22T04:20:42;17.20;;;14.02;;
60665;SDS011;59128;44.642;21.188;2024-03-22T04:23:11;18.93;;;14.70;;
60665;SDS011;59128;44.642;21.188;2024-03-22T04:25:37;16.95;;;13.23;;
60665;SDS011;59128;44.642;21.188;2024-03-22T04:28:03;15.80;;;12.85;;
60665;SDS011;59128;44.642;21.188;2024-03-22T04:30:29;17.13;;;13.70;;
60665;SDS011;59128;44.642;21.188;2024-03-22T04:32:55;16.95;;;13.13;;
60665;SDS011;59128;44.642;21.188;2024-03-22T04:35:21;19.42;;;13.55;;
60665;SDS011;59128;44.642;21.188;2024-03-22T04:37:47;16.30;;;12.73;;
60665;SDS011;59128;44.642;21.188;2024-03-22T04:40:13;16.27;;;13.80;;
60665;SDS011;59128;44.642;21.188;2024-03-22T04:42:39;18.13;;;13.63;;
60665;SDS011;59128;44.642;21.188;2024-03-22T04:45:05;16.23;;;13.38;;
60665;SDS011;59128;44.642;21.188;2024-03-22T04:47:31;16.98;;;12.73;;
60665;SDS011;59128;44.642;21.188;2024-03-22T04:49:57;14.35;;;12.48;;
60665;SDS011;59128;44.642;21.188;2024-03-22T04:52:23;16.20;;;12.73;;
60665;SDS011;59128;44.642;21.188;2024-03-22T04:54:49;13.93;;;11.40;;
60665;SDS011;59128;44.642;21.188;2024-03-22T04:57:15;13.35;;;11.43;;
60665;SDS011;59128;44.642;21.188;2024-03-22T04:59:41;16.90;;;13.40;;
60665;SDS011;59128;44.642;21.188;2024-03-22T05:02:07;18.30;;;13.97;;
60665;SDS011;59128;44.642;21.188;2024-03-22T05:04:33;15.75;;;13.02;;
60665;SDS011;59128;44.642;21.188;2024-03-22T05:07:00;15.70;;;13.53;;
60665;SDS011;59128;44.642;21.188;2024-03-22T05:09:26;15.88;;;12.75;;
60665;SDS011;59128;44.642;21.188;2024-03-22T05:11:52;15.00;;;11.80;;
60665;SDS011;59128;44.642;21.188;2024-03-22T05:14:18;18.85;;;14.88;;
60665;SDS011;59128;44.642;21.188;2024-03-22T05:16:45;14.73;;;11.93;;
60665;SDS011;59128;44.642;21.188;2024-03-22T05:19:11;16.30;;;12.80;;
60665;SDS011;59128;44.642;21.188;2024-03-22T05:21:37;14.10;;;12.15;;
60665;SDS011;59128;44.642;21.188;2024-03-22T05:24:04;14.43;;;12.88;;
60665;SDS011;59128;44.642;21.188;2024-03-22T05:26:30;14.73;;;12.48;;
60665;SDS011;59128;44.642;21.188;2024-03-22T05:29:01;13.13;;;11.73;;
60665;SDS011;59128;44.642;21.188;2024-03-22T05:31:27;14.45;;;12.95;;
60665;SDS011;59128;44.642;21.188;2024-03-22T05:33:53;14.13;;;12.40;;
60665;SDS011;59128;44.642;21.188;2024-03-22T05:36:19;13.43;;;12.05;;
60665;SDS011;59128;44.642;21.188;2024-03-22T05:38:45;14.40;;;12.82;;
60665;SDS011;59128;44.642;21.188;2024-03-22T05:41:11;14.10;;;12.48;;
60665;SDS011;59128;44.642;21.188;2024-03-22T05:43:38;15.05;;;12.52;;
60665;SDS011;59128;44.642;21.188;2024-03-22T05:46:04;15.15;;;12.95;;
60665;SDS011;59128;44.642;21.188;2024-03-22T05:48:30;11.77;;;10.50;;
60665;SDS011;59128;44.642;21.188;2024-03-22T05:50:56;13.33;;;11.77;;
60665;SDS011;59128;44.642;21.188;2024-03-22T05:53:22;12.65;;;11.32;;
60665;SDS011;59128;44.642;21.188;2024-03-22T05:55:48;11.77;;;10.43;;
60665;SDS011;59128;44.642;21.188;2024-03-22T05:58:14;14.98;;;13.25;;
60665;SDS011;59128;44.642;21.188;2024-03-22T06:00:40;16.75;;;13.70;;
60665;SDS011;59128;44.642;21.188;2024-03-22T06:03:07;22.55;;;17.45;;
60665;SDS011;59128;44.642;21.188;2024-03-22T06:05:33;13.70;;;12.27;;
60665;SDS011;59128;44.642;21.188;2024-03-22T06:07:59;14.70;;;13.20;;
60665;SDS011;59128;44.642;21.188;2024-03-22T06:10:25;10.80;;;9.70;;
60665;SDS011;59128;44.642;21.188;2024-03-22T06:12:51;11.75;;;10.43;;
60665;SDS011;59128;44.642;21.188;2024-03-22T06:15:17;11.30;;;10.05;;
60665;SDS011;59128;44.642;21.188;2024-03-22T06:17:43;12.30;;;11.00;;
60665;SDS011;59128;44.642;21.188;2024-03-22T06:20:10;13.63;;;11.93;;
60665;SDS011;59128;44.642;21.188;2024-03-22T06:22:37;12.43;;;9.85;;
60665;SDS011;59128;44.642;21.188;2024-03-22T06:25:03;10.80;;;9.70;;
60665;SDS011;59128;44.642;21.188;2024-03-22T06:27:29;12.18;;;10.50;;
60665;SDS011;59128;44.642;21.188;2024-03-22T06:29:55;12.05;;;10.75;;
60665;SDS011;59128;44.642;21.188;2024-03-22T06:32:21;11.35;;;10.15;;
60665;SDS011;59128;44.642;21.188;2024-03-22T06:34:48;12.13;;;9.80;;
60665;SDS011;59128;44.642;21.188;2024-03-22T06:37:14;14.98;;;10.77;;
60665;SDS011;59128;44.642;21.188;2024-03-22T06:39:40;11.85;;;10.60;;
60665;SDS011;59128;44.642;21.188;2024-03-22T06:42:06;11.55;;;10.45;;
60665;SDS011;59128;44.642;21.188;2024-03-22T06:44:32;12.35;;;11.02;;
60665;SDS011;59128;44.642;21.188;2024-03-22T06:47:01;13.07;;;10.45;;
60665;SDS011;59128;44.642;21.188;2024-03-22T06:49:27;14.02;;;11.93;;
60665;SDS011;59128;44.642;21.188;2024-03-22T06:51:53;14.63;;;12.25;;
60665;SDS011;59128;44.642;21.188;2024-03-22T06:54:19;11.95;;;10.75;;
60665;SDS011;59128;44.642;21.188;2024-03-22T06:56:45;11.80;;;10.60;;
60665;SDS011;59128;44.642;21.188;2024-03-22T06:59:11;12.35;;;11.05;;
60665;SDS011;59128;44.642;21.188;2024-03-22T07:01:37;10.75;;;9.65;;
60665;SDS011;59128;44.642;21.188;2024-03-22T07:04:03;10.80;;;9.70;;
60665;SDS011;59128;44.642;21.188;2024-03-22T07:06:29;11.40;;;10.18;;
60665;SDS011;59128;44.642;21.188;2024-03-22T07:08:55;15.35;;;12.70;;
60665;SDS011;59128;44.642;21.188;2024-03-22T07:11:21;16.38;;;13.18;;
60665;SDS011;59128;44.642;21.188;2024-03-22T07:13:47;12.30;;;11.05;;
60665;SDS011;59128;44.642;21.188;2024-03-22T07:16:13;14.93;;;12.60;;
60665;SDS011;59128;44.642;21.188;2024-03-22T07:18:39;14.93;;;12.68;;
60665;SDS011;59128;44.642;21.188;2024-03-22T07:21:05;15.23;;;12.07;;
60665;SDS011;59128;44.642;21.188;2024-03-22T07:23:42;13.75;;;11.57;;
60665;SDS011;59128;44.642;21.188;2024-03-22T07:26:12;10.43;;;9.32;;
60665;SDS011;59128;44.642;21.188;2024-03-22T07:28:38;10.75;;;9.65;;
60665;SDS011;59128;44.642;21.188;2024-03-22T07:31:07;13.55;;;11.07;;
60665;SDS011;59128;44.642;21.188;2024-03-22T07:33:33;20.08;;;15.70;;
60665;SDS011;59128;44.642;21.188;2024-03-22T07:36:03;15.98;;;13.05;;
60665;SDS011;59128;44.642;21.188;2024-03-22T07:38:29;12.98;;;10.00;;
60665;SDS011;59128;44.642;21.188;2024-03-22T07:40:55;21.00;;;15.07;;
60665;SDS011;59128;44.642;21.188;2024-03-22T07:43:21;15.45;;;13.75;;
60665;SDS011;59128;44.642;21.188;2024-03-22T07:45:47;17.80;;;13.98;;
60665;SDS011;59128;44.642;21.188;2024-03-22T07:48:13;13.90;;;11.32;;
60665;SDS011;59128;44.642;21.188;2024-03-22T07:50:39;13.35;;;10.38;;
60665;SDS011;59128;44.642;21.188;2024-03-22T07:53:05;18.90;;;13.77;;
60665;SDS011;59128;44.642;21.188;2024-03-22T07:55:31;10.50;;;8.83;;
60665;SDS011;59128;44.642;21.188;2024-03-22T07:57:57;13.00;;;9.60;;
60665;SDS011;59128;44.642;21.188;2024-03-22T08:00:24;10.70;;;9.60;;
60665;SDS011;59128;44.642;21.188;2024-03-22T08:02:51;8.57;;;7.35;;
60665;SDS011;59128;44.642;21.188;2024-03-22T08:05:17;8.13;;;6.68;;
60665;SDS011;59128;44.642;21.188;2024-03-22T08:07:44;8.23;;;7.22;;
60665;SDS011;59128;44.642;21.188;2024-03-22T08:10:10;7.07;;;6.38;;
60665;SDS011;59128;44.642;21.188;2024-03-22T08:12:37;11.35;;;10.15;;
60665;SDS011;59128;44.642;21.188;2024-03-22T08:15:03;11.90;;;8.88;;
60665;SDS011;59128;44.642;21.188;2024-03-22T08:17:30;11.68;;;9.73;;
60665;SDS011;59128;44.642;21.188;2024-03-22T08:19:56;7.47;;;6.78;;
60665;SDS011;59128;44.642;21.188;2024-03-22T08:22:22;8.75;;;7.85;;
60665;SDS011;59128;44.642;21.188;2024-03-22T08:24:48;8.02;;;7.20;;
60665;SDS011;59128;44.642;21.188;2024-03-22T08:27:14;8.20;;;7.22;;
60665;SDS011;59128;44.642;21.188;2024-03-22T08:29:40;9.98;;;7.47;;
60665;SDS011;59128;44.642;21.188;2024-03-22T08:32:07;7.97;;;6.80;;
60665;SDS011;59128;44.642;21.188;2024-03-22T08:34:33;8.38;;;7.07;;
60665;SDS011;59128;44.642;21.188;2024-03-22T08:36:59;10.23;;;7.40;;
60665;SDS011;59128;44.642;21.188;2024-03-22T08:39:25;9.05;;;6.95;;
60665;SDS011;59128;44.642;21.188;2024-03-22T08:41:51;9.05;;;7.28;;
60665;SDS011;59128;44.642;21.188;2024-03-22T08:44:17;8.73;;;6.93;;
60665;SDS011;59128;44.642;21.188;2024-03-22T08:46:43;8.23;;;7.43;;
60665;SDS011;59128;44.642;21.188;2024-03-22T08:49:09;8.40;;;7.53;;
60665;SDS011;59128;44.642;21.188;2024-03-22T08:51:37;8.48;;;7.53;;
60665;SDS011;59128;44.642;21.188;2024-03-22T08:54:03;9.25;;;7.18;;
60665;SDS011;59128;44.642;21.188;2024-03-22T08:56:29;8.38;;;7.10;;
60665;SDS011;59128;44.642;21.188;2024-03-22T08:58:55;9.18;;;7.57;;
60665;SDS011;59128;44.642;21.188;2024-03-22T09:01:21;8.70;;;7.80;;
60665;SDS011;59128;44.642;21.188;2024-03-22T09:03:47;8.18;;;7.35;;
60665;SDS011;59128;44.642;21.188;2024-03-22T09:06:14;9.25;;;8.13;;
60665;SDS011;59128;44.642;21.188;2024-03-22T09:08:40;9.13;;;7.75;;
60665;SDS011;59128;44.642;21.188;2024-03-22T09:11:06;9.27;;;8.15;;
60665;SDS011;59128;44.642;21.188;2024-03-22T09:13:32;13.93;;;8.40;;
60665;SDS011;59128;44.642;21.188;2024-03-22T09:16:00;11.45;;;8.10;;
60665;SDS011;59128;44.642;21.188;2024-03-22T09:18:26;9.88;;;8.57;;
60665;SDS011;59128;44.642;21.188;2024-03-22T09:20:53;9.32;;;8.27;;
60665;SDS011;59128;44.642;21.188;2024-03-22T09:23:19;10.75;;;8.63;;
60665;SDS011;59128;44.642;21.188;2024-03-22T09:25:45;10.55;;;9.32;;
60665;SDS011;59128;44.642;21.188;2024-03-22T09:28:12;11.05;;;8.73;;
60665;SDS011;59128;44.642;21.188;2024-03-22T09:30:39;11.77;;;9.65;;
60665;SDS011;59128;44.642;21.188;2024-03-22T09:33:08;11.38;;;10.23;;
60665;SDS011;59128;44.642;21.188;2024-03-22T09:35:34;11.52;;;10.25;;
60665;SDS011;59128;44.642;21.188;2024-03-22T09:38:00;13.02;;;9.98;;
60665;SDS011;59128;44.642;21.188;2024-03-22T09:40:27;11.88;;;10.50;;
60665;SDS011;59128;44.642;21.188;2024-03-22T09:42:53;14.80;;;11.63;;
60665;SDS011;59128;44.642;21.188;2024-03-22T09:45:19;12.77;;;11.10;;
60665;SDS011;59128;44.642;21.188;2024-03-22T09:47:46;12.88;;;10.48;;
60665;SDS011;59128;44.642;21.188;2024-03-22T09:50:14;11.82;;;10.30;;
60665;SDS011;59128;44.642;21.188;2024-03-22T09:52:41;13.17;;;10.53;;
60665;SDS011;59128;44.642;21.188;2024-03-22T09:55:08;15.30;;;10.27;;
60665;SDS011;59128;44.642;21.188;2024-03-22T09:57:35;15.07;;;11.75;;
60665;SDS011;59128;44.642;21.188;2024-03-22T10:00:05;12.95;;;10.18;;
60665;SDS011;59128;44.642;21.188;2024-03-22T10:02:32;15.02;;;10.00;;
60665;SDS011;59128;44.642;21.188;2024-03-22T10:04:59;14.05;;;11.18;;
60665;SDS011;59128;44.642;21.188;2024-03-22T10:07:27;15.75;;;10.88;;
60665;SDS011;59128;44.642;21.188;2024-03-22T10:09:53;14.20;;;10.75;;
60665;SDS011;59128;44.642;21.188;2024-03-22T10:12:19;12.85;;;10.85;;
60665;SDS011;59128;44.642;21.188;2024-03-22T10:14:45;12.45;;;9.77;;
60665;SDS011;59128;44.642;21.188;2024-03-22T10:17:11;12.88;;;10.45;;
60665;SDS011;59128;44.642;21.188;2024-03-22T10:19:37;15.43;;;10.13;;
60665;SDS011;59128;44.642;21.188;2024-03-22T10:22:05;13.10;;;10.57;;
60665;SDS011;59128;44.642;21.188;2024-03-22T10:24:31;16.92;;;9.70;;
60665;SDS011;59128;44.642;21.188;2024-03-22T10:27:00;11.55;;;9.40;;
60665;SDS011;59128;44.642;21.188;2024-03-22T10:29:27;12.15;;;9.43;;
60665;SDS011;59128;44.642;21.188;2024-03-22T10:31:53;13.25;;;9.57;;
60665;SDS011;59128;44.642;21.188;2024-03-22T10:34:22;13.10;;;9.80;;
60665;SDS011;59128;44.642;21.188;2024-03-22T10:36:49;15.30;;;9.90;;
60665;SDS011;59128;44.642;21.188;2024-03-22T10:39:16;11.10;;;9.23;;
60665;SDS011;59128;44.642;21.188;2024-03-22T10:41:47;11.57;;;8.88;;
60665;SDS011;59128;44.642;21.188;2024-03-22T10:44:13;11.23;;;9.10;;
60665;SDS011;59128;44.642;21.188;2024-03-22T10:46:43;12.60;;;9.37;;
60665;SDS011;59128;44.642;21.188;2024-03-22T10:49:09;14.03;;;9.60;;
60665;SDS011;59128;44.642;21.188;2024-03-22T10:51:37;12.87;;;8.83;;
60665;SDS011;59128;44.642;21.188;2024-03-22T10:54:04;12.40;;;8.65;;
60665;SDS011;59128;44.642;21.188;2024-03-22T10:56:31;13.00;;;8.80;;
60665;SDS011;59128;44.642;21.188;2024-03-22T10:58:57;12.68;;;8.23;;
60665;SDS011;59128;44.642;21.188;2024-03-22T11:01:29;12.02;;;8.57;;
60665;SDS011;59128;44.642;21.188;2024-03-22T11:04:05;13.13;;;9.40;;
60665;SDS011;59128;44.642;21.188;2024-03-22T11:06:31;15.52;;;9.68;;
60665;SDS011;59128;44.642;21.188;2024-03-22T11:09:01;10.25;;;7.95;;
60665;SDS011;59128;44.642;21.188;2024-03-22T11:11:29;11.10;;;7.95;;
60665;SDS011;59128;44.642;21.188;2024-03-22T11:13:56;12.60;;;7.70;;
60665;SDS011;59128;44.642;21.188;2024-03-22T11:16:22;10.60;;;7.93;;
60665;SDS011;59128;44.642;21.188;2024-03-22T11:18:49;11.48;;;8.07;;
60665;SDS011;59128;44.642;21.188;2024-03-22T11:21:15;11.18;;;7.80;;
60665;SDS011;59128;44.642;21.188;2024-03-22T11:23:44;12.45;;;8.02;;
60665;SDS011;59128;44.642;21.188;2024-03-22T11:26:10;13.60;;;8.90;;
60665;SDS011;59128;44.642;21.188;2024-03-22T11:28:37;10.73;;;8.18;;
60665;SDS011;59128;44.642;21.188;2024-03-22T11:31:03;51.35;;;42.80;;
60665;SDS011;59128;44.642;21.188;2024-03-22T11:33:32;14.10;;;8.80;;
60665;SDS011;59128;44.642;21.188;2024-03-22T11:35:59;10.50;;;7.13;;
60665;SDS011;59128;44.642;21.188;2024-03-22T11:38:28;12.18;;;7.72;;
60665;SDS011;59128;44.642;21.188;2024-03-22T11:40:55;53.03;;;48.28;;
60665;SDS011;59128;44.642;21.188;2024-03-22T11:43:23;160.45;;;140.35;;
60665;SDS011;59128;44.642;21.188;2024-03-22T11:45:49;14.07;;;10.73;;
60665;SDS011;59128;44.642;21.188;2024-03-22T11:48:15;11.73;;;6.90;;
60665;SDS011;59128;44.642;21.188;2024-03-22T11:50:42;12.95;;;7.03;;
60665;SDS011;59128;44.642;21.188;2024-03-22T11:53:08;34.47;;;30.77;;
60665;SDS011;59128;44.642;21.188;2024-03-22T11:55:37;10.57;;;6.38;;
60665;SDS011;59128;44.642;21.188;2024-03-22T11:58:04;9.48;;;6.65;;
60665;SDS011;59128;44.642;21.188;2024-03-22T12:00:30;9.68;;;5.70;;
60665;SDS011;59128;44.642;21.188;2024-03-22T12:02:56;9.83;;;5.43;;
60665;SDS011;59128;44.642;21.188;2024-03-22T12:05:23;11.38;;;8.73;;
60665;SDS011;59128;44.642;21.188;2024-03-22T12:07:51;9.85;;;7.45;;
60665;SDS011;59128;44.642;21.188;2024-03-22T12:10:17;10.15;;;7.25;;
60665;SDS011;59128;44.642;21.188;2024-03-22T12:12:43;9.80;;;8.00;;
60665;SDS011;59128;44.642;21.188;2024-03-22T12:15:09;12.20;;;8.60;;
60665;SDS011;59128;44.642;21.188;2024-03-22T12:17:36;9.40;;;6.40;;
60665;SDS011;59128;44.642;21.188;2024-03-22T12:20:04;6.97;;;5.50;;
60665;SDS011;59128;44.642;21.188;2024-03-22T12:22:30;9.40;;;6.80;;
60665;SDS011;59128;44.642;21.188;2024-03-22T12:24:56;9.55;;;5.72;;
60665;SDS011;59128;44.642;21.188;2024-03-22T12:27:24;9.55;;;6.18;;
60665;SDS011;59128;44.642;21.188;2024-03-22T12:29:50;13.15;;;6.80;;
60665;SDS011;59128;44.642;21.188;2024-03-22T12:32:16;9.90;;;7.15;;
60665;SDS011;59128;44.642;21.188;2024-03-22T12:34:42;7.63;;;5.70;;
60665;SDS011;59128;44.642;21.188;2024-03-22T12:37:08;12.02;;;6.90;;
60665;SDS011;59128;44.642;21.188;2024-03-22T12:39:38;8.68;;;6.10;;
60665;SDS011;59128;44.642;21.188;2024-03-22T12:42:04;9.93;;;6.13;;
60665;SDS011;59128;44.642;21.188;2024-03-22T12:44:31;8.60;;;5.60;;
60665;SDS011;59128;44.642;21.188;2024-03-22T12:46:57;6.93;;;5.03;;
60665;SDS011;59128;44.642;21.188;2024-03-22T12:49:24;15.43;;;10.20;;
60665;SDS011;59128;44.642;21.188;2024-03-22T12:51:50;16.48;;;12.52;;
60665;SDS011;59128;44.642;21.188;2024-03-22T12:54:16;8.40;;;5.72;;
60665;SDS011;59128;44.642;21.188;2024-03-22T12:56:43;8.93;;;5.72;;
60665;SDS011;59128;44.642;21.188;2024-03-22T12:59:09;8.67;;;5.63;;
60665;SDS011;59128;44.642;21.188;2024-03-22T13:01:35;6.63;;;5.40;;
60665;SDS011;59128;44.642;21.188;2024-03-22T13:04:03;9.02;;;5.40;;
60665;SDS011;59128;44.642;21.188;2024-03-22T13:06:29;9.20;;;5.93;;
60665;SDS011;59128;44.642;21.188;2024-03-22T13:08:55;10.05;;;5.22;;
60665;SDS011;59128;44.642;21.188;2024-03-22T13:11:22;10.20;;;5.55;;
60665;SDS011;59128;44.642;21.188;2024-03-22T13:13:48;8.43;;;4.80;;
60665;SDS011;59128;44.642;21.188;2024-03-22T13:16:14;5.97;;;4.60;;
60665;SDS011;59128;44.642;21.188;2024-03-22T13:18:41;11.88;;;7.70;;
60665;SDS011;59128;44.642;21.188;2024-03-22T13:21:07;11.02;;;7.18;;
60665;SDS011;59128;44.642;21.188;2024-03-22T13:23:34;6.53;;;5.07;;
60665;SDS011;59128;44.642;21.188;2024-03-22T13:26:04;9.02;;;5.20;;
60665;SDS011;59128;44.642;21.188;2024-03-22T13:28:30;6.82;;;6.13;;
60665;SDS011;59128;44.642;21.188;2024-03-22T13:31:02;7.60;;;5.43;;
60665;SDS011;59128;44.642;21.188;2024-03-22T13:33:32;7.07;;;5.07;;
60665;SDS011;59128;44.642;21.188;2024-03-22T13:35:59;6.20;;;5.07;;
60665;SDS011;59128;44.642;21.188;2024-03-22T13:38:25;11.07;;;5.50;;
60665;SDS011;59128;44.642;21.188;2024-03-22T13:40:55;9.80;;;5.22;;
60665;SDS011;59128;44.642;21.188;2024-03-22T13:43:21;30.55;;;23.95;;
60665;SDS011;59128;44.642;21.188;2024-03-22T13:45:49;11.00;;;8.57;;
60665;SDS011;59128;44.642;21.188;2024-03-22T13:48:19;8.63;;;5.72;;
60665;SDS011;59128;44.642;21.188;2024-03-22T13:50:47;11.32;;;5.30;;
60665;SDS011;59128;44.642;21.188;2024-03-22T13:53:13;6.82;;;5.00;;
60665;SDS011;59128;44.642;21.188;2024-03-22T13:55:40;7.63;;;5.00;;
60665;SDS011;59128;44.642;21.188;2024-03-22T13:58:06;9.85;;;5.30;;
60665;SDS011;59128;44.642;21.188;2024-03-22T14:00:32;7.83;;;5.17;;
60665;SDS011;59128;44.642;21.188;2024-03-22T14:03:00;8.70;;;4.80;;
60665;SDS011;59128;44.642;21.188;2024-03-22T14:05:27;8.48;;;5.18;;
60665;SDS011;59128;44.642;21.188;2024-03-22T14:07:53;7.53;;;4.88;;
60665;SDS011;59128;44.642;21.188;2024-03-22T14:10:19;7.78;;;5.10;;
60665;SDS011;59128;44.642;21.188;2024-03-22T14:12:46;7.38;;;4.95;;
60665;SDS011;59128;44.642;21.188;2024-03-22T14:15:12;6.88;;;5.05;;